sensor_id;sensor_type;location;lat;lon;timestamp;temperature;humidity
38860;DHT22;24609;48.316;16.174;2023-04-26T00:01:47;8.10;99.90
38860;DHT22;24609;48.316;16.174;2023-04-26T00:04:13;8.20;99.90
38860;DHT22;24609;48.316;16.174;2023-04-26T00:06:39;8.10;99.90
38860;DHT22;24609;48.316;16.174;2023-04-26T00:09:04;8.20;99.90
38860;DHT22;24609;48.316;16.174;2023-04-26T00:11:31;8.10;99.90
38860;DHT22;24609;48.316;16.174;2023-04-26T00:13:59;8.10;99.90
38860;DHT22;24609;48.316;16.174;2023-04-26T00:16:25;8.00;99.90
38860;DHT22;24609;48.316;16.174;2023-04-26T00:18:51;7.90;99.90
38860;DHT22;24609;48.316;16.174;2023-04-26T00:21:16;7.80;99.90
38860;DHT22;24609;48.316;16.174;2023-04-26T00:23:42;7.70;99.90
38860;DHT22;24609;48.316;16.174;2023-04-26T00:26:08;7.80;99.90
38860;DHT22;24609;48.316;16.174;2023-04-26T00:28:33;7.90;99.90
38860;DHT22;24609;48.316;16.174;2023-04-26T00:30:59;7.90;99.90
38860;DHT22;24609;48.316;16.174;2023-04-26T00:33:25;8.00;99.90
38860;DHT22;24609;48.316;16.174;2023-04-26T00:35:51;8.00;99.90
38860;DHT22;24609;48.316;16.174;2023-04-26T00:38:16;8.00;99.90
38860;DHT22;24609;48.316;16.174;2023-04-26T00:40:42;8.00;99.90
38860;DHT22;24609;48.316;16.174;2023-04-26T00:43:08;8.00;99.90
38860;DHT22;24609;48.316;16.174;2023-04-26T00:45:34;8.00;99.90
38860;DHT22;24609;48.316;16.174;2023-04-26T00:48:01;8.00;99.90
38860;DHT22;24609;48.316;16.174;2023-04-26T00:50:28;8.10;99.90
38860;DHT22;24609;48.316;16.174;2023-04-26T00:52:55;8.00;99.90
38860;DHT22;24609;48.316;16.174;2023-04-26T00:55:21;8.10;99.90
38860;DHT22;24609;48.316;16.174;2023-04-26T00:57:48;8.00;99.90
38860;DHT22;24609;48.316;16.174;2023-04-26T01:00:14;8.00;99.90
38860;DHT22;24609;48.316;16.174;2023-04-26T01:02:40;8.00;99.90
38860;DHT22;24609;48.316;16.174;2023-04-26T01:05:07;8.00;99.90
38860;DHT22;24609;48.316;16.174;2023-04-26T01:07:35;8.00;99.90
38860;DHT22;24609;48.316;16.174;2023-04-26T01:10:02;8.00;99.90
38860;DHT22;24609;48.316;16.174;2023-04-26T01:12:30;7.90;99.90
38860;DHT22;24609;48.316;16.174;2023-04-26T01:14:56;7.90;99.90
38860;DHT22;24609;48.316;16.174;2023-04-26T01:17:23;7.90;99.90
38860;DHT22;24609;48.316;16.174;2023-04-26T01:19:50;8.00;99.90
38860;DHT22;24609;48.316;16.174;2023-04-26T01:22:16;7.90;99.90
38860;DHT22;24609;48.316;16.174;2023-04-26T01:24:44;7.90;99.90
38860;DHT22;24609;48.316;16.174;2023-04-26T01:27:11;7.90;99.90
38860;DHT22;24609;48.316;16.174;2023-04-26T01:29:37;7.90;99.90
38860;DHT22;24609;48.316;16.174;2023-04-26T01:32:03;7.90;99.90
38860;DHT22;24609;48.316;16.174;2023-04-26T01:34:30;7.90;99.90
38860;DHT22;24609;48.316;16.174;2023-04-26T01:36:57;7.80;99.90
38860;DHT22;24609;48.316;16.174;2023-04-26T01:39:23;7.80;99.90
38860;DHT22;24609;48.316;16.174;2023-04-26T01:41:48;7.80;99.90
38860;DHT22;24609;48.316;16.174;2023-04-26T01:44:14;7.70;99.90
38860;DHT22;24609;48.316;16.174;2023-04-26T01:46:40;7.60;99.90
38860;DHT22;24609;48.316;16.174;2023-04-26T01:49:06;7.50;99.90
38860;DHT22;24609;48.316;16.174;2023-04-26T01:51:31;7.40;99.90
38860;DHT22;24609;48.316;16.174;2023-04-26T01:53:58;7.20;99.90
38860;DHT22;24609;48.316;16.174;2023-04-26T01:56:24;6.90;99.90
38860;DHT22;24609;48.316;16.174;2023-04-26T01:58:50;6.70;99.90
38860;DHT22;24609;48.316;16.174;2023-04-26T02:01:16;6.50;99.90
38860;DHT22;24609;48.316;16.174;2023-04-26T02:03:41;6.40;99.90
38860;DHT22;24609;48.316;16.174;2023-04-26T02:06:07;6.20;99.90
38860;DHT22;24609;48.316;16.174;2023-04-26T02:08:33;6.10;99.90
38860;DHT22;24609;48.316;16.174;2023-04-26T02:10:58;6.00;99.90
38860;DHT22;24609;48.316;16.174;2023-04-26T02:13:24;5.80;99.90
38860;DHT22;24609;48.316;16.174;2023-04-26T02:15:50;5.70;99.90
38860;DHT22;24609;48.316;16.174;2023-04-26T02:18:16;5.50;99.90
38860;DHT22;24609;48.316;16.174;2023-04-26T02:20:46;5.50;99.90
38860;DHT22;24609;48.316;16.174;2023-04-26T02:23:12;5.40;99.90
38860;DHT22;24609;48.316;16.174;2023-04-26T02:25:38;5.30;99.90
38860;DHT22;24609;48.316;16.174;2023-04-26T02:28:04;5.20;99.90
38860;DHT22;24609;48.316;16.174;2023-04-26T02:30:30;5.10;99.90
38860;DHT22;24609;48.316;16.174;2023-04-26T02:32:56;5.00;99.90
38860;DHT22;24609;48.316;16.174;2023-04-26T02:35:22;5.00;99.90
38860;DHT22;24609;48.316;16.174;2023-04-26T02:37:48;5.00;99.90
38860;DHT22;24609;48.316;16.174;2023-04-26T02:40:17;5.00;99.90
38860;DHT22;24609;48.316;16.174;2023-04-26T02:42:42;5.10;99.90
38860;DHT22;24609;48.316;16.174;2023-04-26T02:45:08;5.10;99.90
38860;DHT22;24609;48.316;16.174;2023-04-26T02:47:34;5.10;99.90
38860;DHT22;24609;48.316;16.174;2023-04-26T02:50:02;5.10;99.90
38860;DHT22;24609;48.316;16.174;2023-04-26T02:52:28;5.10;99.90
38860;DHT22;24609;48.316;16.174;2023-04-26T02:54:54;5.10;99.90
38860;DHT22;24609;48.316;16.174;2023-04-26T02:57:19;5.10;99.90
38860;DHT22;24609;48.316;16.174;2023-04-26T02:59:45;5.00;99.90
38860;DHT22;24609;48.316;16.174;2023-04-26T03:02:11;4.80;99.90
38860;DHT22;24609;48.316;16.174;2023-04-26T03:04:37;4.70;99.90
38860;DHT22;24609;48.316;16.174;2023-04-26T03:07:03;4.70;99.90
38860;DHT22;24609;48.316;16.174;2023-04-26T03:09:29;4.80;99.90
38860;DHT22;24609;48.316;16.174;2023-04-26T03:11:55;4.70;99.90
38860;DHT22;24609;48.316;16.174;2023-04-26T03:14:21;4.60;99.90
38860;DHT22;24609;48.316;16.174;2023-04-26T03:16:47;4.40;99.90
38860;DHT22;24609;48.316;16.174;2023-04-26T03:19:15;4.20;99.90
38860;DHT22;24609;48.316;16.174;2023-04-26T03:21:41;4.10;99.90
38860;DHT22;24609;48.316;16.174;2023-04-26T03:24:06;3.90;99.90
38860;DHT22;24609;48.316;16.174;2023-04-26T03:26:32;3.80;99.90
38860;DHT22;24609;48.316;16.174;2023-04-26T03:28:58;3.70;99.90
38860;DHT22;24609;48.316;16.174;2023-04-26T03:31:24;3.60;99.90
38860;DHT22;24609;48.316;16.174;2023-04-26T03:33:50;3.60;99.90
38860;DHT22;24609;48.316;16.174;2023-04-26T03:36:16;3.60;99.90
38860;DHT22;24609;48.316;16.174;2023-04-26T03:38:42;3.50;99.90
38860;DHT22;24609;48.316;16.174;2023-04-26T03:41:08;3.60;99.90
38860;DHT22;24609;48.316;16.174;2023-04-26T03:43:33;3.80;99.90
38860;DHT22;24609;48.316;16.174;2023-04-26T03:45:59;3.90;99.90
38860;DHT22;24609;48.316;16.174;2023-04-26T03:48:26;4.00;99.90
38860;DHT22;24609;48.316;16.174;2023-04-26T03:50:52;4.10;99.90
38860;DHT22;24609;48.316;16.174;2023-04-26T03:53:18;4.10;99.90
38860;DHT22;24609;48.316;16.174;2023-04-26T03:55:43;4.20;99.90
38860;DHT22;24609;48.316;16.174;2023-04-26T03:58:09;4.10;99.90
38860;DHT22;24609;48.316;16.174;2023-04-26T04:00:39;4.10;99.90
38860;DHT22;24609;48.316;16.174;2023-04-26T04:03:06;4.10;99.90
38860;DHT22;24609;48.316;16.174;2023-04-26T04:05:32;4.10;99.90
38860;DHT22;24609;48.316;16.174;2023-04-26T04:07:57;4.00;99.90
38860;DHT22;24609;48.316;16.174;2023-04-26T04:10:23;4.00;99.90
38860;DHT22;24609;48.316;16.174;2023-04-26T04:12:50;4.00;99.90
38860;DHT22;24609;48.316;16.174;2023-04-26T04:15:16;4.00;99.90
38860;DHT22;24609;48.316;16.174;2023-04-26T04:17:43;4.10;99.90
38860;DHT22;24609;48.316;16.174;2023-04-26T04:20:09;4.20;99.90
38860;DHT22;24609;48.316;16.174;2023-04-26T04:22:35;4.30;99.90
38860;DHT22;24609;48.316;16.174;2023-04-26T04:25:01;4.50;99.90
38860;DHT22;24609;48.316;16.174;2023-04-26T04:27:29;4.60;99.90
38860;DHT22;24609;48.316;16.174;2023-04-26T04:29:54;4.80;99.90
38860;DHT22;24609;48.316;16.174;2023-04-26T04:32:21;4.90;99.90
38860;DHT22;24609;48.316;16.174;2023-04-26T04:34:48;5.00;99.90
38860;DHT22;24609;48.316;16.174;2023-04-26T04:37:15;5.00;99.90
38860;DHT22;24609;48.316;16.174;2023-04-26T04:39:41;5.10;99.90
38860;DHT22;24609;48.316;16.174;2023-04-26T04:42:07;5.20;99.90
38860;DHT22;24609;48.316;16.174;2023-04-26T04:44:32;5.20;99.90
38860;DHT22;24609;48.316;16.174;2023-04-26T04:46:58;5.20;99.90
38860;DHT22;24609;48.316;16.174;2023-04-26T04:49:24;5.60;99.90
38860;DHT22;24609;48.316;16.174;2023-04-26T04:51:50;5.90;99.90
38860;DHT22;24609;48.316;16.174;2023-04-26T04:54:17;6.40;99.90
38860;DHT22;24609;48.316;16.174;2023-04-26T04:56:43;6.80;99.90
38860;DHT22;24609;48.316;16.174;2023-04-26T04:59:10;7.20;99.90
38860;DHT22;24609;48.316;16.174;2023-04-26T05:01:36;7.40;99.90
38860;DHT22;24609;48.316;16.174;2023-04-26T05:04:03;7.50;99.90
38860;DHT22;24609;48.316;16.174;2023-04-26T05:06:29;7.60;99.90
38860;DHT22;24609;48.316;16.174;2023-04-26T05:08:58;7.40;99.90
38860;DHT22;24609;48.316;16.174;2023-04-26T05:11:24;7.00;99.90
38860;DHT22;24609;48.316;16.174;2023-04-26T05:13:49;6.70;99.90
38860;DHT22;24609;48.316;16.174;2023-04-26T05:16:15;6.80;99.90
38860;DHT22;24609;48.316;16.174;2023-04-26T05:18:41;7.00;99.90
38860;DHT22;24609;48.316;16.174;2023-04-26T05:21:07;6.90;99.90
38860;DHT22;24609;48.316;16.174;2023-04-26T05:23:32;6.70;99.90
38860;DHT22;24609;48.316;16.174;2023-04-26T05:26:05;6.60;99.90
38860;DHT22;24609;48.316;16.174;2023-04-26T05:28:32;6.80;99.90
38860;DHT22;24609;48.316;16.174;2023-04-26T05:30:58;6.90;99.90
38860;DHT22;24609;48.316;16.174;2023-04-26T05:33:24;7.20;99.90
38860;DHT22;24609;48.316;16.174;2023-04-26T05:35:50;7.40;99.90
38860;DHT22;24609;48.316;16.174;2023-04-26T05:38:17;7.60;99.90
38860;DHT22;24609;48.316;16.174;2023-04-26T05:40:42;8.00;99.90
38860;DHT22;24609;48.316;16.174;2023-04-26T05:43:08;8.20;99.90
38860;DHT22;24609;48.316;16.174;2023-04-26T05:45:34;8.20;99.90
38860;DHT22;24609;48.316;16.174;2023-04-26T05:48:00;8.20;99.90
38860;DHT22;24609;48.316;16.174;2023-04-26T05:50:25;8.30;99.90
38860;DHT22;24609;48.316;16.174;2023-04-26T05:52:51;8.40;99.90
38860;DHT22;24609;48.316;16.174;2023-04-26T05:55:17;8.80;99.90
38860;DHT22;24609;48.316;16.174;2023-04-26T05:57:44;9.10;99.90
38860;DHT22;24609;48.316;16.174;2023-04-26T06:00:10;9.40;99.90
38860;DHT22;24609;48.316;16.174;2023-04-26T06:02:36;9.80;99.90
38860;DHT22;24609;48.316;16.174;2023-04-26T06:05:02;10.00;99.90
38860;DHT22;24609;48.316;16.174;2023-04-26T06:07:29;10.40;99.90
38860;DHT22;24609;48.316;16.174;2023-04-26T06:09:55;10.70;99.90
38860;DHT22;24609;48.316;16.174;2023-04-26T06:12:21;11.10;99.90
38860;DHT22;24609;48.316;16.174;2023-04-26T06:14:47;11.50;99.90
38860;DHT22;24609;48.316;16.174;2023-04-26T06:17:12;12.10;99.90
38860;DHT22;24609;48.316;16.174;2023-04-26T06:19:38;12.60;99.90
38860;DHT22;24609;48.316;16.174;2023-04-26T06:22:04;12.70;99.90
38860;DHT22;24609;48.316;16.174;2023-04-26T06:24:30;13.00;99.90
38860;DHT22;24609;48.316;16.174;2023-04-26T06:26:56;13.20;99.90
38860;DHT22;24609;48.316;16.174;2023-04-26T06:29:21;14.00;99.90
38860;DHT22;24609;48.316;16.174;2023-04-26T06:31:47;14.60;99.70
38860;DHT22;24609;48.316;16.174;2023-04-26T06:34:13;14.20;97.00
38860;DHT22;24609;48.316;16.174;2023-04-26T06:36:38;14.00;97.00
38860;DHT22;24609;48.316;16.174;2023-04-26T06:39:11;14.80;97.60
38860;DHT22;24609;48.316;16.174;2023-04-26T06:41:36;15.80;96.40
38860;DHT22;24609;48.316;16.174;2023-04-26T06:44:02;14.80;95.50
38860;DHT22;24609;48.316;16.174;2023-04-26T06:46:28;14.80;96.10
38860;DHT22;24609;48.316;16.174;2023-04-26T06:48:53;15.90;94.50
38860;DHT22;24609;48.316;16.174;2023-04-26T06:51:20;15.60;93.20
38860;DHT22;24609;48.316;16.174;2023-04-26T06:53:46;15.70;92.60
38860;DHT22;24609;48.316;16.174;2023-04-26T06:56:12;16.00;92.50
38860;DHT22;24609;48.316;16.174;2023-04-26T06:58:38;15.50;92.30
38860;DHT22;24609;48.316;16.174;2023-04-26T07:01:03;15.20;92.90
38860;DHT22;24609;48.316;16.174;2023-04-26T07:03:30;14.40;94.40
38860;DHT22;24609;48.316;16.174;2023-04-26T07:05:56;14.40;95.20
38860;DHT22;24609;48.316;16.174;2023-04-26T07:08:22;14.30;92.20
38860;DHT22;24609;48.316;16.174;2023-04-26T07:10:48;14.60;94.80
38860;DHT22;24609;48.316;16.174;2023-04-26T07:13:13;15.40;94.90
38860;DHT22;24609;48.316;16.174;2023-04-26T07:15:39;15.60;92.10
38860;DHT22;24609;48.316;16.174;2023-04-26T07:18:05;15.80;93.80
38860;DHT22;24609;48.316;16.174;2023-04-26T07:20:30;15.90;93.60
38860;DHT22;24609;48.316;16.174;2023-04-26T07:22:56;16.30;93.50
38860;DHT22;24609;48.316;16.174;2023-04-26T07:25:22;15.10;91.50
38860;DHT22;24609;48.316;16.174;2023-04-26T07:27:47;13.80;93.50
38860;DHT22;24609;48.316;16.174;2023-04-26T07:30:15;14.00;95.40
38860;DHT22;24609;48.316;16.174;2023-04-26T07:32:41;14.00;95.50
38860;DHT22;24609;48.316;16.174;2023-04-26T07:35:07;14.70;95.30
38860;DHT22;24609;48.316;16.174;2023-04-26T07:37:34;15.00;94.60
38860;DHT22;24609;48.316;16.174;2023-04-26T07:40:00;15.70;94.60
38860;DHT22;24609;48.316;16.174;2023-04-26T07:42:26;15.90;90.70
38860;DHT22;24609;48.316;16.174;2023-04-26T07:44:51;14.40;92.90
38860;DHT22;24609;48.316;16.174;2023-04-26T07:47:17;13.60;93.10
38860;DHT22;24609;48.316;16.174;2023-04-26T07:49:43;12.80;94.10
38860;DHT22;24609;48.316;16.174;2023-04-26T07:52:08;12.20;94.50
38860;DHT22;24609;48.316;16.174;2023-04-26T07:54:34;12.50;95.20
38860;DHT22;24609;48.316;16.174;2023-04-26T07:57:00;14.30;93.10
38860;DHT22;24609;48.316;16.174;2023-04-26T07:59:26;14.60;93.50
38860;DHT22;24609;48.316;16.174;2023-04-26T08:01:52;14.00;90.70
38860;DHT22;24609;48.316;16.174;2023-04-26T08:04:29;13.90;91.20
38860;DHT22;24609;48.316;16.174;2023-04-26T08:06:56;13.70;93.00
38860;DHT22;24609;48.316;16.174;2023-04-26T08:09:22;13.90;93.60
38860;DHT22;24609;48.316;16.174;2023-04-26T08:11:48;13.60;91.80
38860;DHT22;24609;48.316;16.174;2023-04-26T08:14:14;13.60;91.80
38860;DHT22;24609;48.316;16.174;2023-04-26T08:16:40;13.10;91.00
38860;DHT22;24609;48.316;16.174;2023-04-26T08:19:06;13.00;92.50
38860;DHT22;24609;48.316;16.174;2023-04-26T08:21:31;13.10;92.40
38860;DHT22;24609;48.316;16.174;2023-04-26T08:23:57;13.30;92.90
38860;DHT22;24609;48.316;16.174;2023-04-26T08:26:23;13.20;92.20
38860;DHT22;24609;48.316;16.174;2023-04-26T08:28:48;13.00;93.20
38860;DHT22;24609;48.316;16.174;2023-04-26T08:31:14;12.50;93.70
38860;DHT22;24609;48.316;16.174;2023-04-26T08:33:40;12.00;95.70
38860;DHT22;24609;48.316;16.174;2023-04-26T08:36:05;11.60;95.20
38860;DHT22;24609;48.316;16.174;2023-04-26T08:38:32;11.10;94.30
38860;DHT22;24609;48.316;16.174;2023-04-26T08:40:59;11.30;95.10
38860;DHT22;24609;48.316;16.174;2023-04-26T08:43:32;14.30;93.40
38860;DHT22;24609;48.316;16.174;2023-04-26T08:46:01;17.60;86.00
38860;DHT22;24609;48.316;16.174;2023-04-26T08:48:32;21.30;74.50
38860;DHT22;24609;48.316;16.174;2023-04-26T08:50:59;24.00;56.80
38860;DHT22;24609;48.316;16.174;2023-04-26T08:53:26;20.70;54.00
38860;DHT22;24609;48.316;16.174;2023-04-26T08:55:52;19.50;55.30
38860;DHT22;24609;48.316;16.174;2023-04-26T08:58:18;17.70;59.10
38860;DHT22;24609;48.316;16.174;2023-04-26T09:00:45;18.50;54.20
38860;DHT22;24609;48.316;16.174;2023-04-26T09:03:11;18.40;56.80
38860;DHT22;24609;48.316;16.174;2023-04-26T09:05:39;16.10;60.80
38860;DHT22;24609;48.316;16.174;2023-04-26T09:08:08;14.10;68.60
38860;DHT22;24609;48.316;16.174;2023-04-26T09:10:35;13.10;74.50
38860;DHT22;24609;48.316;16.174;2023-04-26T09:13:01;12.30;71.60
38860;DHT22;24609;48.316;16.174;2023-04-26T09:15:26;12.50;78.60
38860;DHT22;24609;48.316;16.174;2023-04-26T09:17:52;13.90;77.10
38860;DHT22;24609;48.316;16.174;2023-04-26T09:20:22;16.90;69.90
38860;DHT22;24609;48.316;16.174;2023-04-26T09:22:53;17.00;64.40
38860;DHT22;24609;48.316;16.174;2023-04-26T09:25:29;16.60;64.50
38860;DHT22;24609;48.316;16.174;2023-04-26T09:27:55;16.10;67.20
38860;DHT22;24609;48.316;16.174;2023-04-26T09:30:21;16.00;69.50
38860;DHT22;24609;48.316;16.174;2023-04-26T09:33:03;16.10;65.60
38860;DHT22;24609;48.316;16.174;2023-04-26T09:38:10;19.40;62.60
38860;DHT22;24609;48.316;16.174;2023-04-26T09:40:47;18.90;59.50
38860;DHT22;24609;48.316;16.174;2023-04-26T09:43:17;17.60;58.50
38860;DHT22;24609;48.316;16.174;2023-04-26T09:45:51;17.90;61.10
38860;DHT22;24609;48.316;16.174;2023-04-26T09:48:24;17.00;63.50
38860;DHT22;24609;48.316;16.174;2023-04-26T09:51:09;14.90;63.40
38860;DHT22;24609;48.316;16.174;2023-04-26T09:53:46;14.10;71.20
38860;DHT22;24609;48.316;16.174;2023-04-26T09:56:17;13.00;70.90
38860;DHT22;24609;48.316;16.174;2023-04-26T10:01:13;13.60;70.70
38860;DHT22;24609;48.316;16.174;2023-04-26T10:03:40;17.30;64.30
38860;DHT22;24609;48.316;16.174;2023-04-26T10:06:07;18.90;60.50
38860;DHT22;24609;48.316;16.174;2023-04-26T10:08:34;23.40;57.20
38860;DHT22;24609;48.316;16.174;2023-04-26T10:11:04;20.40;53.20
38860;DHT22;24609;48.316;16.174;2023-04-26T10:13:32;17.00;58.10
38860;DHT22;24609;48.316;16.174;2023-04-26T10:15:59;15.80;65.00
38860;DHT22;24609;48.316;16.174;2023-04-26T10:18:26;14.80;65.70
38860;DHT22;24609;48.316;16.174;2023-04-26T10:20:56;14.60;69.20
38860;DHT22;24609;48.316;16.174;2023-04-26T10:23:23;14.60;68.90
38860;DHT22;24609;48.316;16.174;2023-04-26T10:25:53;14.40;73.20
38860;DHT22;24609;48.316;16.174;2023-04-26T10:31:04;22.50;56.40
38860;DHT22;24609;48.316;16.174;2023-04-26T10:33:31;25.60;47.30
38860;DHT22;24609;48.316;16.174;2023-04-26T10:39:19;24.10;40.50
38860;DHT22;24609;48.316;16.174;2023-04-26T10:41:30;23.90;41.90
38860;DHT22;24609;48.316;16.174;2023-04-26T10:43:57;21.90;45.40
38860;DHT22;24609;48.316;16.174;2023-04-26T10:46:38;20.30;47.70
38860;DHT22;24609;48.316;16.174;2023-04-26T10:49:14;18.40;53.00
38860;DHT22;24609;48.316;16.174;2023-04-26T10:51:40;17.90;54.40
38860;DHT22;24609;48.316;16.174;2023-04-26T10:54:06;15.70;56.70
38860;DHT22;24609;48.316;16.174;2023-04-26T10:59:11;17.10;56.20
38860;DHT22;24609;48.316;16.174;2023-04-26T11:01:38;20.00;51.70
38860;DHT22;24609;48.316;16.174;2023-04-26T11:04:11;22.40;46.90
38860;DHT22;24609;48.316;16.174;2023-04-26T11:07:06;19.90;47.40
38860;DHT22;24609;48.316;16.174;2023-04-26T11:09:36;21.50;45.50
38860;DHT22;24609;48.316;16.174;2023-04-26T11:12:07;21.50;45.00
38860;DHT22;24609;48.316;16.174;2023-04-26T11:14:35;24.40;41.00
38860;DHT22;24609;48.316;16.174;2023-04-26T11:17:08;24.50;38.20
38860;DHT22;24609;48.316;16.174;2023-04-26T11:19:34;21.30;40.20
38860;DHT22;24609;48.316;16.174;2023-04-26T11:22:01;18.70;44.80
38860;DHT22;24609;48.316;16.174;2023-04-26T11:24:31;17.50;49.50
38860;DHT22;24609;48.316;16.174;2023-04-26T11:26:57;17.60;47.90
38860;DHT22;24609;48.316;16.174;2023-04-26T11:29:24;19.00;48.00
38860;DHT22;24609;48.316;16.174;2023-04-26T11:31:54;22.00;43.60
38860;DHT22;24609;48.316;16.174;2023-04-26T11:34:33;21.40;43.10
38860;DHT22;24609;48.316;16.174;2023-04-26T11:37:02;18.90;43.90
38860;DHT22;24609;48.316;16.174;2023-04-26T11:39:33;17.40;46.20
38860;DHT22;24609;48.316;16.174;2023-04-26T11:42:06;17.50;49.20
38860;DHT22;24609;48.316;16.174;2023-04-26T11:44:33;19.40;45.90
38860;DHT22;24609;48.316;16.174;2023-04-26T11:47:00;22.20;43.70
38860;DHT22;24609;48.316;16.174;2023-04-26T11:49:29;22.40;41.00
38860;DHT22;24609;48.316;16.174;2023-04-26T11:51:56;20.80;41.80
38860;DHT22;24609;48.316;16.174;2023-04-26T11:54:32;18.50;44.40
38860;DHT22;24609;48.316;16.174;2023-04-26T11:56:58;22.40;45.00
38860;DHT22;24609;48.316;16.174;2023-04-26T11:59:29;25.70;38.70
38860;DHT22;24609;48.316;16.174;2023-04-26T12:01:55;28.20;34.20
38860;DHT22;24609;48.316;16.174;2023-04-26T12:04:29;27.80;33.00
38860;DHT22;24609;48.316;16.174;2023-04-26T12:06:55;27.50;31.70
38860;DHT22;24609;48.316;16.174;2023-04-26T12:09:23;23.80;35.40
38860;DHT22;24609;48.316;16.174;2023-04-26T12:11:59;22.40;37.30
38860;DHT22;24609;48.316;16.174;2023-04-26T12:14:38;20.10;41.90
38860;DHT22;24609;48.316;16.174;2023-04-26T12:17:05;17.60;45.60
38860;DHT22;24609;48.316;16.174;2023-04-26T12:19:36;15.90;45.80
38860;DHT22;24609;48.316;16.174;2023-04-26T12:22:06;15.80;49.90
38860;DHT22;24609;48.316;16.174;2023-04-26T12:24:31;16.90;50.90
38860;DHT22;24609;48.316;16.174;2023-04-26T12:27:02;16.70;47.30
38860;DHT22;24609;48.316;16.174;2023-04-26T12:29:29;19.70;44.60
38860;DHT22;24609;48.316;16.174;2023-04-26T12:31:57;21.50;43.10
38860;DHT22;24609;48.316;16.174;2023-04-26T12:34:23;22.60;39.70
38860;DHT22;24609;48.316;16.174;2023-04-26T12:36:48;18.40;42.60
38860;DHT22;24609;48.316;16.174;2023-04-26T12:39:14;18.80;43.40
38860;DHT22;24609;48.316;16.174;2023-04-26T12:41:41;21.40;39.50
38860;DHT22;24609;48.316;16.174;2023-04-26T12:44:08;23.30;36.10
38860;DHT22;24609;48.316;16.174;2023-04-26T12:46:34;26.40;37.10
38860;DHT22;24609;48.316;16.174;2023-04-26T12:49:00;27.70;33.10
38860;DHT22;24609;48.316;16.174;2023-04-26T12:51:26;25.20;35.50
38860;DHT22;24609;48.316;16.174;2023-04-26T12:53:52;20.40;38.30
38860;DHT22;24609;48.316;16.174;2023-04-26T12:56:18;17.70;43.60
38860;DHT22;24609;48.316;16.174;2023-04-26T12:58:43;18.20;45.10
38860;DHT22;24609;48.316;16.174;2023-04-26T13:01:11;18.70;44.50
38860;DHT22;24609;48.316;16.174;2023-04-26T13:03:37;19.60;41.20
38860;DHT22;24609;48.316;16.174;2023-04-26T13:06:03;19.50;43.30
38860;DHT22;24609;48.316;16.174;2023-04-26T13:08:29;18.20;44.00
38860;DHT22;24609;48.316;16.174;2023-04-26T13:10:55;16.30;45.70
38860;DHT22;24609;48.316;16.174;2023-04-26T13:13:21;18.00;45.20
38860;DHT22;24609;48.316;16.174;2023-04-26T13:15:46;23.30;41.30
38860;DHT22;24609;48.316;16.174;2023-04-26T13:18:12;25.60;36.80
38860;DHT22;24609;48.316;16.174;2023-04-26T13:20:40;23.80;36.00
38860;DHT22;24609;48.316;16.174;2023-04-26T13:23:05;20.60;41.10
38860;DHT22;24609;48.316;16.174;2023-04-26T13:25:32;17.70;44.70
38860;DHT22;24609;48.316;16.174;2023-04-26T13:27:57;15.90;46.80
38860;DHT22;24609;48.316;16.174;2023-04-26T13:30:23;15.70;50.90
38860;DHT22;24609;48.316;16.174;2023-04-26T13:32:49;15.80;51.50
38860;DHT22;24609;48.316;16.174;2023-04-26T13:35:17;16.00;51.80
38860;DHT22;24609;48.316;16.174;2023-04-26T13:37:43;16.30;51.20
38860;DHT22;24609;48.316;16.174;2023-04-26T13:40:09;16.30;47.60
38860;DHT22;24609;48.316;16.174;2023-04-26T13:42:36;15.60;51.00
38860;DHT22;24609;48.316;16.174;2023-04-26T13:45:02;15.40;49.80
38860;DHT22;24609;48.316;16.174;2023-04-26T13:47:30;15.30;50.90
38860;DHT22;24609;48.316;16.174;2023-04-26T13:49:56;15.90;51.00
38860;DHT22;24609;48.316;16.174;2023-04-26T13:52:22;22.10;43.30
38860;DHT22;24609;48.316;16.174;2023-04-26T13:54:47;26.60;35.40
38860;DHT22;24609;48.316;16.174;2023-04-26T13:57:13;28.20;31.30
38860;DHT22;24609;48.316;16.174;2023-04-26T13:59:39;28.70;31.70
38860;DHT22;24609;48.316;16.174;2023-04-26T14:02:05;29.20;29.20
38860;DHT22;24609;48.316;16.174;2023-04-26T14:04:31;25.00;32.40
38860;DHT22;24609;48.316;16.174;2023-04-26T14:06:57;21.10;38.90
38860;DHT22;24609;48.316;16.174;2023-04-26T14:09:23;18.50;42.60
38860;DHT22;24609;48.316;16.174;2023-04-26T14:11:49;16.90;46.50
38860;DHT22;24609;48.316;16.174;2023-04-26T14:14:14;17.40;44.90
38860;DHT22;24609;48.316;16.174;2023-04-26T14:16:40;18.90;42.30
38860;DHT22;24609;48.316;16.174;2023-04-26T14:19:06;18.90;45.00
38860;DHT22;24609;48.316;16.174;2023-04-26T14:21:32;21.70;39.40
38860;DHT22;24609;48.316;16.174;2023-04-26T14:23:57;23.40;37.10
38860;DHT22;24609;48.316;16.174;2023-04-26T14:26:26;22.40;36.90
38860;DHT22;24609;48.316;16.174;2023-04-26T14:28:51;19.90;41.80
38860;DHT22;24609;48.316;16.174;2023-04-26T14:31:17;17.80;45.30
38860;DHT22;24609;48.316;16.174;2023-04-26T14:33:44;16.70;47.30
38860;DHT22;24609;48.316;16.174;2023-04-26T14:36:10;17.60;46.70
38860;DHT22;24609;48.316;16.174;2023-04-26T14:38:40;17.00;45.60
38860;DHT22;24609;48.316;16.174;2023-04-26T14:41:06;16.30;49.80
38860;DHT22;24609;48.316;16.174;2023-04-26T14:43:32;16.00;51.90
38860;DHT22;24609;48.316;16.174;2023-04-26T14:45:58;15.90;52.60
38860;DHT22;24609;48.316;16.174;2023-04-26T14:48:23;20.30;44.40
38860;DHT22;24609;48.316;16.174;2023-04-26T14:50:57;23.20;38.60
38860;DHT22;24609;48.316;16.174;2023-04-26T14:53:24;25.80;35.10
38860;DHT22;24609;48.316;16.174;2023-04-26T14:55:56;25.20;34.20
38860;DHT22;24609;48.316;16.174;2023-04-26T14:58:23;22.00;38.00
38860;DHT22;24609;48.316;16.174;2023-04-26T15:00:49;21.20;39.20
38860;DHT22;24609;48.316;16.174;2023-04-26T15:03:15;22.30;37.60
38860;DHT22;24609;48.316;16.174;2023-04-26T15:05:41;21.40;38.90
38860;DHT22;24609;48.316;16.174;2023-04-26T15:08:07;18.90;43.90
38860;DHT22;24609;48.316;16.174;2023-04-26T15:10:32;17.20;47.70
38860;DHT22;24609;48.316;16.174;2023-04-26T15:12:58;16.50;50.10
38860;DHT22;24609;48.316;16.174;2023-04-26T15:15:24;16.00;50.70
38860;DHT22;24609;48.316;16.174;2023-04-26T15:17:49;15.30;50.40
38860;DHT22;24609;48.316;16.174;2023-04-26T15:20:15;14.30;50.70
38860;DHT22;24609;48.316;16.174;2023-04-26T15:22:41;13.80;51.80
38860;DHT22;24609;48.316;16.174;2023-04-26T15:25:07;14.10;53.80
38860;DHT22;24609;48.316;16.174;2023-04-26T15:27:34;14.00;52.20
38860;DHT22;24609;48.316;16.174;2023-04-26T15:30:01;13.90;53.10
38860;DHT22;24609;48.316;16.174;2023-04-26T15:32:28;13.70;52.50
38860;DHT22;24609;48.316;16.174;2023-04-26T15:34:53;13.60;54.50